createdAt,value
2022-09-06T00:03:43.396Z,98036.50
2022-09-06T00:08:48.412Z,98086.66
2022-09-06T00:13:52.024Z,98128.78
2022-09-06T00:18:56.468Z,98115.41
2022-09-06T00:23:59.935Z,97880.22
2022-09-06T00:29:03.352Z,97811.91
2022-09-06T00:34:07.074Z,97991.59
2022-09-06T00:39:10.724Z,97906.38
2022-09-06T00:44:14.492Z,98105.28
2022-09-06T00:49:29.490Z,98107.56
2022-09-06T00:54:33.435Z,98118.69
2022-09-06T00:59:40.585Z,97853.28
2022-09-06T01:04:45.846Z,97947.06
2022-09-06T01:10:24.917Z,98082.53
2022-09-06T01:15:40.959Z,98076.59
2022-09-06T01:21:16.705Z,98072.31
2022-09-06T01:26:57.915Z,98044.13
2022-09-06T01:32:14.021Z,97931.22
2022-09-06T01:37:21.067Z,98054.53
2022-09-06T01:42:29.118Z,97903.97
2022-09-06T01:47:57.218Z,98058.75
2022-09-06T01:53:25.356Z,98057.59
2022-09-06T01:58:51.766Z,98060.16
2022-09-06T02:04:04.510Z,98058.34
2022-09-06T02:09:12.772Z,98031.34
2022-09-06T02:14:23.599Z,97939.09
2022-09-06T02:19:50.203Z,98054.81
2022-09-06T02:24:59.381Z,97998.09
2022-09-06T02:30:04.009Z,97860.81
2022-09-06T02:35:10.139Z,98040.22
2022-09-06T02:40:14.130Z,97986.63
2022-09-06T02:45:17.749Z,97993.31
2022-09-06T02:50:21.688Z,97998.38
2022-09-06T02:55:25.186Z,97983.94
2022-09-06T03:00:30.586Z,97991.97
2022-09-06T03:05:35.555Z,98041.03
2022-09-06T03:10:39.584Z,97991.28
2022-09-06T03:15:44.810Z,98026.06
2022-09-06T03:20:51.193Z,98015.47
2022-09-06T03:25:55.779Z,97852.13
2022-09-06T03:30:59.418Z,97977.47
2022-09-06T03:36:04.139Z,98050.66
2022-09-06T03:41:07.427Z,98047.44
2022-09-06T03:46:11.149Z,98032.00
2022-09-06T03:51:14.806Z,98031.38
2022-09-06T03:56:18.541Z,98055.91
2022-09-06T04:01:22.259Z,98047.38
2022-09-06T04:06:28.991Z,98033.06
2022-09-06T04:11:32.546Z,98043.75
2022-09-06T04:16:36.299Z,98016.66
2022-09-06T04:21:39.922Z,98051.19
2022-09-06T04:26:43.554Z,98006.78
2022-09-06T04:31:47.373Z,98011.94
2022-09-06T04:36:51.109Z,98012.47
2022-09-06T04:41:54.769Z,97994.47
2022-09-06T04:47:13.543Z,98014.38
2022-09-06T04:52:17.592Z,98046.72
2022-09-06T04:57:21.538Z,97998.53
2022-09-06T05:02:25.318Z,97958.44
2022-09-06T05:07:29.130Z,97994.19
2022-09-06T05:12:32.927Z,98012.13
2022-09-06T05:17:36.687Z,98050.25
2022-09-06T05:22:41.145Z,98048.31
2022-09-06T05:27:44.936Z,97997.25
2022-09-06T05:32:49.490Z,98041.91
2022-09-06T05:37:52.966Z,97937.81
2022-09-06T05:42:56.614Z,98025.56
2022-09-06T05:48:00.162Z,97988.00
2022-09-06T05:53:03.718Z,97952.69
2022-09-06T05:58:07.402Z,97933.19
2022-09-06T06:03:11.104Z,98014.56
2022-09-06T06:08:14.615Z,98033.25
2022-09-06T06:13:18.812Z,97992.88
2022-09-06T06:18:22.653Z,97934.97
2022-09-06T06:23:27.104Z,97956.91
2022-09-06T06:28:30.782Z,98018.06
2022-09-06T06:33:34.723Z,97922.31
2022-09-06T06:38:44.644Z,97939.31
2022-09-06T06:43:48.329Z,97951.31
2022-09-06T06:48:54.931Z,97979.06
2022-09-06T06:53:59.228Z,97968.41
2022-09-06T06:59:05.449Z,98011.31
2022-09-06T07:04:11.507Z,97978.41
2022-09-06T07:09:15.574Z,97989.25
2022-09-06T07:14:19.481Z,98019.13
2022-09-06T07:24:46.793Z,97966.97
2022-09-06T07:29:50.587Z,97974.78
2022-09-06T07:34:54.462Z,97931.59
2022-09-06T07:39:58.132Z,97961.88
2022-09-06T07:45:02.130Z,98003.34
2022-09-06T07:55:29.826Z,97944.03
2022-09-06T08:00:33.784Z,97954.69
2022-09-06T08:11:02.173Z,98031.22
2022-09-06T08:16:08.281Z,98025.94
2022-09-06T08:21:16.416Z,97958.47
2022-09-06T08:26:21.868Z,97881.06
2022-09-06T08:31:25.507Z,97931.41
2022-09-06T08:36:32.973Z,97972.06
2022-09-06T08:41:52.899Z,97983.09
2022-09-06T08:47:35.847Z,97896.50
2022-09-06T09:02:19.367Z,98012.28
2022-09-06T09:22:20.319Z,98021.59
2022-09-06T09:27:27.069Z,97977.44
2022-09-06T09:32:42.437Z,97983.63
2022-09-06T10:12:37.269Z,97903.34
2022-09-06T11:07:00.103Z,97920.34
2022-09-06T11:24:00.404Z,97952.56
2022-09-06T11:29:09.101Z,97937.22
2022-09-06T11:34:21.774Z,97828.53
2022-09-06T11:44:59.957Z,97920.88
2022-09-06T11:50:21.964Z,97920.72
2022-09-06T11:55:37.238Z,97910.00
2022-09-06T12:00:40.767Z,97879.78
2022-09-06T12:06:24.225Z,97881.66
2022-09-06T12:11:46.841Z,97906.34
2022-09-06T12:17:03.095Z,97891.06
2022-09-06T12:22:47.444Z,97804.16
2022-09-06T12:27:57.683Z,97885.97
2022-09-06T12:33:03.375Z,97874.16
2022-09-06T12:38:14.771Z,97840.56
2022-09-06T12:43:18.595Z,97877.75
2022-09-06T12:48:31.135Z,97865.41
2022-09-06T12:53:35.950Z,97721.38
2022-09-06T12:58:40.789Z,97766.78
2022-09-06T13:03:54.817Z,97865.66
2022-09-06T13:08:59.668Z,97846.38
2022-09-06T13:14:14.057Z,97817.00
2022-09-06T13:19:20.143Z,97781.56
2022-09-06T13:24:26.699Z,97794.63
2022-09-06T13:29:32.524Z,97849.41
2022-09-06T13:34:35.362Z,97823.09
2022-09-06T13:39:42.498Z,97842.38
2022-09-06T13:44:46.569Z,97790.38
2022-09-06T13:49:56.195Z,97644.47
2022-09-06T13:55:00.230Z,97838.69
2022-09-06T14:00:03.313Z,97833.28
2022-09-06T14:05:06.491Z,97786.88
2022-09-06T14:10:09.675Z,97780.47
2022-09-06T14:15:12.567Z,97815.19
2022-09-06T14:20:15.606Z,97733.66
2022-09-06T14:25:18.652Z,97805.44
2022-09-06T14:30:24.934Z,97768.75
2022-09-06T14:35:29.137Z,97645.53
2022-09-06T14:40:36.029Z,97744.00
2022-09-06T14:45:40.031Z,97793.28
2022-09-06T14:50:43.232Z,97795.75
2022-09-06T14:55:46.164Z,97755.72
2022-09-06T15:00:51.251Z,97711.44
2022-09-06T15:05:54.044Z,97666.66
2022-09-06T15:10:57.414Z,97587.97
2022-09-06T15:16:00.566Z,97726.06
2022-09-06T15:21:14.276Z,97772.50
2022-09-06T15:26:17.333Z,97740.03
2022-09-06T15:31:21.089Z,97766.28
2022-09-06T15:36:24.236Z,97665.13
2022-09-06T15:41:29.331Z,97700.22
2022-09-06T15:46:41.391Z,97739.84
2022-09-06T15:51:44.491Z,97640.91
2022-09-06T15:56:47.486Z,97670.84
2022-09-06T16:01:50.379Z,97589.06
2022-09-06T16:06:53.268Z,97598.84
2022-09-06T16:11:56.051Z,97708.31
2022-09-06T16:16:59.040Z,97633.63
2022-09-06T16:22:01.984Z,97536.91
2022-09-06T16:27:05.119Z,97660.59
2022-09-06T16:32:08.679Z,97651.25
2022-09-06T16:37:11.664Z,97574.44
2022-09-06T16:42:14.626Z,97571.25
2022-09-06T16:47:17.982Z,97606.97
2022-09-06T16:52:20.926Z,97695.16
2022-09-06T16:57:25.727Z,97625.81
2022-09-06T17:02:28.754Z,97736.97
2022-09-06T17:07:34.015Z,97701.59
2022-09-06T17:12:37.161Z,97618.63
2022-09-06T17:17:40.967Z,97724.69
2022-09-06T17:22:44.035Z,97715.16
2022-09-06T17:27:49.131Z,97619.94
2022-09-06T17:32:53.804Z,97694.91
2022-09-06T17:37:56.960Z,97681.50
2022-09-06T17:42:59.893Z,97563.72
2022-09-06T17:48:03.741Z,97705.66
2022-09-06T17:53:07.911Z,97581.91
2022-09-06T17:58:11.222Z,97774.72
2022-09-06T18:03:13.983Z,97589.72
2022-09-06T18:08:17.743Z,97780.63
2022-09-06T18:13:20.487Z,97734.56
2022-09-06T18:23:31.249Z,97742.69
2022-09-06T18:28:37.188Z,97814.56
2022-09-06T18:33:42.409Z,97785.91
2022-09-06T18:38:47.242Z,97732.75
2022-09-06T18:43:55.212Z,97811.81
2022-09-06T18:48:59.919Z,97785.66
2022-09-06T18:54:03.684Z,97787.69
2022-09-06T18:59:09.110Z,97813.50
2022-09-06T19:04:15.050Z,97820.13
2022-09-06T19:09:19.191Z,97783.09
2022-09-06T19:14:24.324Z,97682.44
2022-09-06T19:19:28.121Z,97621.53
2022-09-06T19:24:32.793Z,97699.53
2022-09-06T19:29:37.436Z,97724.88
2022-09-06T19:34:42.002Z,97794.66
2022-09-06T19:39:45.585Z,97643.69
2022-09-06T19:44:49.257Z,97772.31
2022-09-06T19:49:53.163Z,97786.91
2022-09-06T19:55:04.127Z,97792.97
2022-09-06T20:00:08.532Z,97723.81
2022-09-06T20:05:12.376Z,97777.41
2022-09-06T20:10:16.873Z,97759.84
2022-09-06T20:15:20.749Z,97777.13
2022-09-06T20:20:25.707Z,97778.50
2022-09-06T20:25:29.379Z,97660.75
2022-09-06T20:30:35.576Z,97750.09
2022-09-06T20:35:40.576Z,97681.81
2022-09-06T20:40:44.033Z,97591.00
2022-09-06T20:45:50.507Z,97738.88
2022-09-06T20:51:02.849Z,97730.19
2022-09-06T20:56:08.587Z,97774.91
2022-09-06T21:01:20.521Z,97827.47
2022-09-06T21:06:26.074Z,97834.44
2022-09-06T21:11:30.986Z,97814.25
2022-09-06T21:16:34.892Z,97746.81
2022-09-06T21:21:42.120Z,97842.88
2022-09-06T21:26:46.172Z,97796.13
2022-09-06T21:31:50.105Z,97801.84
2022-09-06T21:36:53.778Z,97792.84
2022-09-06T21:41:57.680Z,97842.06
2022-09-06T21:47:02.300Z,97768.50
2022-09-06T21:52:05.921Z,97748.72
2022-09-06T21:57:09.654Z,97819.81
2022-09-06T22:02:13.560Z,97802.59
2022-09-06T22:07:17.719Z,97721.44
2022-09-06T22:12:24.907Z,97839.28
2022-09-06T22:17:28.701Z,97825.13
2022-09-06T22:22:32.893Z,97797.25
2022-09-06T22:27:42.380Z,97752.31
2022-09-06T22:32:45.871Z,97778.69
2022-09-06T22:37:49.639Z,97744.50
2022-09-06T22:42:53.980Z,97761.81
2022-09-06T22:47:57.539Z,97806.13
2022-09-06T22:53:01.085Z,97746.09
2022-09-06T22:58:05.766Z,97735.78
2022-09-06T23:03:09.215Z,97802.13
2022-09-06T23:08:14.798Z,97814.97
2022-09-06T23:13:18.584Z,97756.59
2022-09-06T23:18:22.248Z,97831.00
2022-09-06T23:23:25.840Z,97710.66
2022-09-06T23:28:29.492Z,97764.00
2022-09-06T23:33:35.950Z,97820.88
2022-09-06T23:38:41.689Z,97821.47
2022-09-06T23:43:45.658Z,97839.28
2022-09-06T23:48:55.654Z,97821.91
2022-09-06T23:53:59.274Z,97766.41
2022-09-06T23:59:02.988Z,97830.56
